Time;durP1;ratioP1;P1;durP2;ratioP2;P2;SDS_P1;SDS_P2;PMS_P1;PMS_P2;Temp;Humidity;BMP_temperature;BMP_pressure;BME280_temperature;BME280_humidity;BME280_pressure;Samples;Min_cycle;Max_cycle;Signal;HPM_P1;HPM_P2
2024/01/09 00:02:16;;;;;;;5.65;3.45;;;8.90;81.50;;;;;;4981698;28;20039;-82
2024/01/09 00:04:42;;;;;;;4.43;3.08;;;8.90;81.00;;;;;;4982458;28;20026;-82
2024/01/09 00:07:07;;;;;;;5.57;3.92;;;8.90;80.90;;;;;;4986676;28;20041;-82
2024/01/09 00:09:34;;;;;;;5.38;3.45;;;8.90;80.50;;;;;;4983892;28;20026;-82
2024/01/09 00:12:00;;;;;;;5.65;4.10;;;8.90;80.60;;;;;;4984363;28;20473;-82
2024/01/09 00:14:26;;;;;;;7.40;3.47;;;8.90;80.40;;;;;;4977909;28;20027;-82
2024/01/09 00:16:51;;;;;;;5.05;3.78;;;8.80;80.60;;;;;;4977324;28;20134;-82
2024/01/09 00:19:17;;;;;;;8.48;4.47;;;8.80;80.80;;;;;;4988091;28;20066;-83
2024/01/09 00:21:46;;;;;;;4.35;3.13;;;8.70;80.00;;;;;;4987340;28;20089;-83
2024/01/09 00:24:11;;;;;;;4.65;3.22;;;8.70;80.60;;;;;;4978697;28;20061;-83
2024/01/09 00:26:41;;;;;;;5.45;3.20;;;8.70;80.70;;;;;;4978374;28;20063;-83
2024/01/09 00:29:07;;;;;;;4.68;3.55;;;8.80;80.80;;;;;;4977149;28;20477;-83
2024/01/09 00:31:33;;;;;;;4.50;3.25;;;8.80;80.80;;;;;;4981312;28;20039;-83
2024/01/09 00:33:59;;;;;;;5.38;3.15;;;8.90;80.50;;;;;;4977580;28;20035;-83
2024/01/09 00:36:24;;;;;;;4.85;3.97;;;8.90;80.50;;;;;;4976180;28;20034;-83
2024/01/09 00:38:50;;;;;;;4.28;3.03;;;8.90;80.50;;;;;;4976555;28;20448;-83
2024/01/09 00:41:16;;;;;;;5.75;4.05;;;8.90;80.30;;;;;;4987636;28;20376;-83
2024/01/09 00:43:42;;;;;;;7.53;4.38;;;8.80;80.40;;;;;;4987862;28;20450;-84
2024/01/09 00:46:07;;;;;;;5.55;4.03;;;8.80;81.00;;;;;;4977076;28;20589;-83
2024/01/09 00:48:34;;;;;;;5.43;3.83;;;8.80;80.70;;;;;;4989053;28;20475;-83
2024/01/09 00:51:00;;;;;;;7.30;4.55;;;8.80;80.90;;;;;;4985897;28;20046;-83
2024/01/09 00:53:26;;;;;;;5.47;3.58;;;8.80;81.20;;;;;;4994843;28;20026;-83
2024/01/09 00:55:51;;;;;;;5.15;4.00;;;8.70;80.90;;;;;;4987586;28;20505;-83
2024/01/09 00:58:17;;;;;;;7.85;5.45;;;8.60;81.20;;;;;;4976190;28;20118;-83
2024/01/09 01:00:43;;;;;;;8.10;4.63;;;8.50;81.80;;;;;;4983475;28;20023;-83
2024/01/09 01:03:09;;;;;;;6.82;4.57;;;8.50;82.00;;;;;;4976606;28;20027;-83
2024/01/09 01:05:34;;;;;;;5.32;4.07;;;8.50;82.30;;;;;;4981122;28;20031;-83
2024/01/09 01:08:00;;;;;;;8.93;4.70;;;8.50;82.40;;;;;;4981501;28;20030;-84
2024/01/09 01:10:25;;;;;;;7.78;4.68;;;8.50;82.60;;;;;;4975642;28;20077;-84
2024/01/09 01:12:51;;;;;;;6.95;5.07;;;8.50;82.70;;;;;;4976340;28;20114;-83
2024/01/09 01:15:17;;;;;;;6.80;4.70;;;8.60;82.90;;;;;;4979260;28;20453;-83
2024/01/09 01:17:43;;;;;;;5.57;4.43;;;8.60;82.90;;;;;;4976222;28;20505;-83
2024/01/09 01:20:09;;;;;;;7.20;5.05;;;8.50;82.90;;;;;;4976933;28;20122;-84
2024/01/09 01:22:35;;;;;;;6.47;4.40;;;8.50;82.90;;;;;;4977123;28;20031;-83
2024/01/09 01:25:01;;;;;;;10.75;6.50;;;8.50;82.80;;;;;;4988677;28;20082;-82
2024/01/09 01:27:27;;;;;;;8.45;5.60;;;8.50;82.80;;;;;;4976647;28;20034;-83
2024/01/09 01:29:53;;;;;;;7.22;4.50;;;8.40;82.90;;;;;;4976269;28;20034;-83
2024/01/09 01:32:18;;;;;;;6.38;4.97;;;8.30;83.20;;;;;;4975748;28;20034;-83
2024/01/09 01:34:44;;;;;;;8.60;5.70;;;8.30;83.60;;;;;;4979907;28;20030;-83
2024/01/09 01:37:10;;;;;;;6.45;4.50;;;8.40;84.10;;;;;;4995090;28;20038;-83
2024/01/09 01:39:36;;;;;;;8.20;5.60;;;8.40;84.00;;;;;;4976743;28;20043;-84
2024/01/09 01:42:02;;;;;;;6.25;5.05;;;8.40;84.40;;;;;;4976400;28;20022;-84
2024/01/09 01:44:28;;;;;;;7.38;4.63;;;8.40;84.20;;;;;;4962345;28;20029;-84
2024/01/09 01:46:53;;;;;;;6.20;3.92;;;8.40;83.90;;;;;;4989710;28;20030;-83
2024/01/09 01:49:20;;;;;;;6.28;4.38;;;8.40;84.00;;;;;;4984076;28;20090;-83
2024/01/09 01:51:48;;;;;;;8.35;5.07;;;8.40;84.40;;;;;;4977200;28;20038;-83
2024/01/09 01:54:15;;;;;;;10.45;7.40;;;8.40;83.60;;;;;;4989797;28;20111;-83
2024/01/09 01:56:42;;;;;;;6.90;4.68;;;8.30;82.20;;;;;;4980764;28;20035;-83
2024/01/09 01:59:13;;;;;;;7.97;5.20;;;8.20;82.80;;;;;;4973582;28;20057;-83
2024/01/09 02:01:38;;;;;;;7.43;5.15;;;8.10;83.20;;;;;;4973340;28;20035;-83
2024/01/09 02:04:05;;;;;;;7.53;4.95;;;8.10;83.70;;;;;;4971742;28;20030;-83
2024/01/09 02:06:31;;;;;;;6.55;4.80;;;8.10;83.80;;;;;;4976854;28;20030;-82
2024/01/09 02:08:56;;;;;;;6.65;4.65;;;8.00;83.90;;;;;;4959410;28;20500;-83
2024/01/09 02:11:22;;;;;;;6.65;5.05;;;8.10;84.20;;;;;;4979921;28;20143;-82
2024/01/09 02:13:48;;;;;;;9.07;5.50;;;8.10;84.50;;;;;;4975626;28;20030;-82
2024/01/09 02:16:14;;;;;;;8.18;5.20;;;8.10;84.70;;;;;;4989839;28;20062;-83
2024/01/09 02:18:39;;;;;;;8.05;5.45;;;8.10;84.60;;;;;;4967092;28;20034;-83
2024/01/09 02:21:05;;;;;;;8.57;5.38;;;8.20;84.40;;;;;;4976305;28;20027;-82
2024/01/09 02:23:31;;;;;;;8.05;5.25;;;8.20;84.30;;;;;;4983252;28;20026;-83
2024/01/09 02:25:57;;;;;;;6.25;4.88;;;8.20;84.40;;;;;;4980211;28;20170;-83
2024/01/09 02:28:49;;;;;;;7.72;5.78;;;8.20;84.40;;;;;;4975520;28;20109;-83
2024/01/09 02:31:15;;;;;;;7.10;4.85;;;8.30;84.20;;;;;;4975756;28;21181;-83
2024/01/09 02:33:43;;;;;;;8.88;5.60;;;8.20;83.90;;;;;;4976539;28;20038;-82
2024/01/09 02:36:08;;;;;;;8.00;5.22;;;8.20;83.70;;;;;;4974601;28;20042;-82
2024/01/09 02:38:34;;;;;;;8.55;5.63;;;8.20;83.80;;;;;;4980887;28;20034;-82
2024/01/09 02:41:00;;;;;;;7.68;5.43;;;8.20;84.00;;;;;;4978637;28;20417;-82
2024/01/09 02:43:25;;;;;;;7.70;5.43;;;8.10;83.80;;;;;;4976270;28;20420;-82
2024/01/09 02:45:51;;;;;;;7.45;5.38;;;8.20;84.30;;;;;;4974826;28;20383;-82
2024/01/09 02:48:16;;;;;;;9.98;5.35;;;8.20;83.80;;;;;;4974882;28;20453;-82
2024/01/09 02:50:42;;;;;;;6.35;4.85;;;8.20;83.90;;;;;;4983390;28;20034;-81
2024/01/09 02:53:08;;;;;;;6.65;5.13;;;8.20;83.80;;;;;;4978881;28;20033;-82
2024/01/09 02:55:33;;;;;;;7.20;5.05;;;8.20;83.50;;;;;;4983893;28;20021;-83
2024/01/09 02:57:59;;;;;;;7.60;5.07;;;8.20;83.50;;;;;;4961909;28;20041;-83
2024/01/09 03:00:25;;;;;;;6.18;4.43;;;8.20;83.30;;;;;;4974438;28;20062;-83
2024/01/09 03:02:50;;;;;;;6.55;4.50;;;8.20;83.30;;;;;;4974952;28;20034;-83
2024/01/09 03:05:16;;;;;;;8.68;5.22;;;8.20;83.30;;;;;;4975458;28;20054;-82
2024/01/09 03:07:42;;;;;;;7.15;4.80;;;8.20;83.30;;;;;;4976641;28;20026;-83
2024/01/09 03:10:08;;;;;;;8.38;4.72;;;8.20;83.10;;;;;;4976854;28;20029;-83
2024/01/09 03:12:34;;;;;;;8.00;4.90;;;8.10;82.90;;;;;;4974773;28;20038;-82
2024/01/09 03:15:00;;;;;;;8.75;4.80;;;8.10;82.70;;;;;;4974781;28;20026;-81
2024/01/09 03:17:25;;;;;;;6.00;4.88;;;8.00;82.60;;;;;;4976573;28;20054;-81
2024/01/09 03:19:51;;;;;;;6.50;4.72;;;8.10;82.70;;;;;;4960585;28;20034;-83
2024/01/09 03:22:16;;;;;;;7.25;4.53;;;8.10;82.90;;;;;;4981453;28;20057;-83
2024/01/09 03:24:42;;;;;;;7.72;4.50;;;8.10;82.70;;;;;;4977451;28;20051;-83
2024/01/09 03:27:08;;;;;;;6.00;3.95;;;8.10;82.20;;;;;;4981219;28;20115;-82
2024/01/09 03:29:33;;;;;;;4.43;3.58;;;8.00;81.70;;;;;;4974169;28;20061;-82
2024/01/09 03:31:59;;;;;;;4.82;3.90;;;8.00;81.60;;;;;;4979836;28;20030;-82
2024/01/09 03:34:25;;;;;;;6.43;3.25;;;7.90;81.30;;;;;;4977110;28;20034;-82
2024/01/09 03:36:50;;;;;;;5.30;3.40;;;7.90;81.10;;;;;;4957094;28;20125;-82
2024/01/09 03:39:16;;;;;;;4.88;3.38;;;7.90;81.10;;;;;;4973593;28;20034;-83
2024/01/09 03:41:42;;;;;;;6.93;4.65;;;7.80;80.80;;;;;;4975292;28;20044;-83
2024/01/09 03:44:09;;;;;;;5.90;3.70;;;7.80;81.00;;;;;;4974103;28;20030;-83
2024/01/09 03:46:34;;;;;;;5.43;3.78;;;7.80;80.90;;;;;;4978959;28;20566;-83
2024/01/09 03:49:00;;;;;;;5.82;3.90;;;7.60;80.40;;;;;;4987916;28;20128;-83
2024/01/09 03:51:26;;;;;;;5.40;3.13;;;7.70;81.00;;;;;;4981917;28;20090;-83
2024/01/09 03:53:52;;;;;;;5.80;3.58;;;7.70;81.00;;;;;;4973388;28;20046;-83
2024/01/09 03:56:18;;;;;;;5.13;3.47;;;7.70;81.00;;;;;;4978797;28;20034;-83
2024/01/09 03:58:44;;;;;;;5.75;3.20;;;7.70;81.00;;;;;;4992900;28;20034;-83
2024/01/09 04:01:10;;;;;;;5.43;3.58;;;7.70;80.80;;;;;;4983981;28;20043;-82
2024/01/09 04:03:36;;;;;;;4.93;2.90;;;7.70;80.90;;;;;;4955697;28;20078;-83
2024/01/09 04:06:04;;;;;;;4.72;3.25;;;7.80;80.80;;;;;;4975036;28;20038;-83
2024/01/09 04:08:30;;;;;;;6.97;3.88;;;7.70;80.80;;;;;;4956742;28;20380;-83
2024/01/09 04:10:56;;;;;;;4.93;3.03;;;7.70;80.20;;;;;;4985793;28;20147;-83
2024/01/09 04:13:22;;;;;;;4.93;3.28;;;7.70;80.50;;;;;;4986720;28;20055;-83
2024/01/09 04:15:47;;;;;;;5.22;3.65;;;7.70;80.50;;;;;;4974060;28;20054;-83
2024/01/09 04:18:13;;;;;;;6.57;3.45;;;7.60;80.50;;;;;;4973431;28;20038;-83
2024/01/09 04:20:42;;;;;;;4.28;2.78;;;7.60;80.50;;;;;;4975919;28;20031;-83
2024/01/09 04:23:08;;;;;;;8.57;4.30;;;7.50;80.50;;;;;;4973812;28;20031;-82
2024/01/09 04:25:34;;;;;;;6.40;3.40;;;7.60;80.50;;;;;;4973673;28;20118;-81
2024/01/09 04:27:59;;;;;;;6.78;3.75;;;7.60;80.60;;;;;;4973978;28;20023;-83
2024/01/09 04:30:26;;;;;;;6.78;4.10;;;7.60;80.50;;;;;;4979613;28;20050;-83
2024/01/09 04:32:52;;;;;;;4.68;3.10;;;7.60;80.60;;;;;;4973378;28;20023;-83
2024/01/09 04:35:18;;;;;;;5.25;3.30;;;7.60;80.30;;;;;;4982623;28;20042;-82
2024/01/09 04:37:44;;;;;;;5.32;3.20;;;7.60;80.20;;;;;;4960494;28;20089;-82
2024/01/09 04:40:10;;;;;;;7.05;3.55;;;7.60;80.10;;;;;;4974468;28;20067;-83
2024/01/09 04:42:36;;;;;;;5.95;3.60;;;7.60;79.80;;;;;;4972362;28;20055;-84
2024/01/09 04:45:02;;;;;;;7.85;3.75;;;7.60;79.70;;;;;;4975656;28;20436;-84
2024/01/09 04:47:27;;;;;;;5.68;2.97;;;7.50;79.70;;;;;;4977352;28;20037;-84
2024/01/09 04:49:53;;;;;;;8.98;3.83;;;7.50;79.60;;;;;;4970368;28;20041;-83
2024/01/09 04:52:19;;;;;;;4.40;2.67;;;7.50;79.40;;;;;;4961959;28;20035;-83
2024/01/09 04:54:44;;;;;;;5.25;3.35;;;7.40;79.70;;;;;;4985816;28;20034;-83
2024/01/09 04:57:10;;;;;;;5.63;3.47;;;7.50;79.90;;;;;;4988120;28;20354;-83
2024/01/09 04:59:36;;;;;;;4.38;3.10;;;7.50;79.80;;;;;;4977295;28;20038;-83
2024/01/09 05:02:01;;;;;;;4.68;3.38;;;7.50;79.50;;;;;;4976744;28;20033;-83
2024/01/09 05:04:30;;;;;;;3.47;2.72;;;7.50;79.50;;;;;;4987128;28;20022;-83
2024/01/09 05:06:56;;;;;;;6.15;3.60;;;7.40;79.20;;;;;;4976764;28;20038;-83
2024/01/09 05:09:22;;;;;;;8.90;5.70;;;7.40;79.10;;;;;;4981502;28;20053;-82
2024/01/09 05:11:48;;;;;;;4.32;3.08;;;7.40;78.90;;;;;;4976907;28;20034;-82
2024/01/09 05:14:14;;;;;;;6.20;3.20;;;7.40;78.90;;;;;;4976905;28;20487;-82
2024/01/09 05:16:40;;;;;;;5.63;3.42;;;7.40;79.10;;;;;;4976694;28;20035;-82
2024/01/09 05:19:05;;;;;;;4.50;3.05;;;7.40;78.90;;;;;;4977315;28;20050;-82
2024/01/09 05:21:31;;;;;;;4.05;2.85;;;7.40;78.50;;;;;;4976618;28;20033;-82
2024/01/09 05:23:57;;;;;;;5.65;3.58;;;7.40;78.80;;;;;;4961019;28;20117;-82
2024/01/09 05:26:22;;;;;;;6.38;3.22;;;7.40;78.50;;;;;;4976135;28;20039;-83
2024/01/09 05:28:48;;;;;;;4.90;2.80;;;7.30;78.90;;;;;;4976497;28;20027;-82
2024/01/09 05:31:14;;;;;;;6.78;3.58;;;7.30;78.90;;;;;;4976165;28;20019;-83
2024/01/09 05:33:40;;;;;;;7.25;2.92;;;7.30;78.80;;;;;;4986164;28;20203;-83
2024/01/09 05:36:06;;;;;;;5.07;3.38;;;7.40;78.90;;;;;;4976452;28;20062;-83
2024/01/09 05:38:32;;;;;;;5.03;3.08;;;7.40;79.00;;;;;;4977038;28;20438;-83
2024/01/09 05:40:58;;;;;;;6.35;3.15;;;7.40;79.00;;;;;;4976284;28;20035;-83
2024/01/09 05:43:24;;;;;;;5.78;3.58;;;7.40;78.70;;;;;;4976224;28;20359;-83
2024/01/09 05:45:50;;;;;;;6.88;3.83;;;7.40;78.50;;;;;;4968469;28;20023;-84
2024/01/09 05:48:16;;;;;;;7.38;4.35;;;7.30;78.10;;;;;;4959297;28;20027;-84
2024/01/09 05:50:41;;;;;;;6.80;3.25;;;7.30;78.40;;;;;;4975448;28;20034;-84
2024/01/09 05:53:08;;;;;;;4.38;3.03;;;7.30;78.80;;;;;;4976005;28;20469;-84
2024/01/09 05:55:34;;;;;;;4.40;3.05;;;7.30;78.80;;;;;;4966665;28;20062;-83
2024/01/09 05:58:00;;;;;;;5.55;2.88;;;7.20;79.00;;;;;;4965826;28;20501;-84
2024/01/09 06:00:26;;;;;;;5.90;3.00;;;7.20;78.70;;;;;;4980012;28;20041;-84
2024/01/09 06:02:51;;;;;;;4.32;3.28;;;7.20;79.20;;;;;;4987944;28;20101;-83
2024/01/09 06:05:17;;;;;;;6.60;3.30;;;7.20;79.50;;;;;;4984513;28;20185;-84
2024/01/09 06:07:43;;;;;;;4.50;3.22;;;7.20;79.40;;;;;;4987201;28;20479;-83
2024/01/09 06:10:09;;;;;;;5.10;3.28;;;7.20;79.20;;;;;;4969641;28;20065;-83
2024/01/09 06:12:35;;;;;;;5.50;3.85;;;7.20;79.10;;;;;;4975990;28;20034;-83
2024/01/09 06:15:01;;;;;;;6.82;4.20;;;7.20;79.30;;;;;;4976686;28;20083;-84
2024/01/09 06:17:26;;;;;;;8.35;3.65;;;7.20;79.40;;;;;;4975404;28;20125;-84
2024/01/09 06:19:52;;;;;;;5.90;3.47;;;7.20;80.00;;;;;;4978516;28;20038;-84
2024/01/09 06:22:18;;;;;;;5.03;3.38;;;7.20;79.40;;;;;;4975392;28;20081;-84
2024/01/09 06:24:43;;;;;;;6.38;3.38;;;7.20;79.50;;;;;;4976772;28;20031;-84
2024/01/09 06:27:09;;;;;;;6.65;3.95;;;7.20;79.00;;;;;;4975276;28;20058;-83
2024/01/09 06:29:35;;;;;;;5.25;3.33;;;7.20;78.80;;;;;;4972353;28;20073;-83
2024/01/09 06:32:01;;;;;;;6.57;3.50;;;7.20;79.00;;;;;;4974157;28;20488;-83
2024/01/09 06:34:26;;;;;;;5.38;3.65;;;7.20;79.30;;;;;;4976265;28;20074;-83
2024/01/09 06:36:52;;;;;;;5.00;3.28;;;7.20;78.90;;;;;;4979673;28;20487;-83
2024/01/09 06:39:18;;;;;;;5.60;3.63;;;7.20;79.80;;;;;;4975011;28;20031;-84
2024/01/09 06:41:44;;;;;;;4.00;2.80;;;7.30;79.60;;;;;;4971520;28;20029;-84
2024/01/09 06:44:10;;;;;;;6.28;3.42;;;7.20;79.20;;;;;;4974876;28;20023;-82
2024/01/09 06:46:36;;;;;;;7.13;3.70;;;7.20;78.90;;;;;;4975786;28;20046;-83
2024/01/09 06:49:01;;;;;;;6.50;4.25;;;7.20;78.90;;;;;;4974536;28;20033;-84
2024/01/09 06:51:29;;;;;;;5.15;3.22;;;7.20;78.50;;;;;;4974338;28;20030;-83
2024/01/09 06:53:55;;;;;;;5.35;3.28;;;7.20;78.70;;;;;;4968338;28;20069;-85
2024/01/09 06:56:21;;;;;;;5.75;3.25;;;7.20;78.90;;;;;;4964037;28;20035;-84
2024/01/09 06:58:46;;;;;;;5.68;3.25;;;7.20;79.00;;;;;;4969771;28;20144;-84
2024/01/09 07:01:12;;;;;;;4.45;3.38;;;7.20;79.10;;;;;;4971386;28;20042;-83
2024/01/09 07:03:38;;;;;;;7.95;4.22;;;7.20;78.90;;;;;;4971665;28;20046;-83
2024/01/09 07:06:04;;;;;;;12.80;6.47;;;7.10;78.70;;;;;;4974558;28;20026;-84
2024/01/09 07:08:30;;;;;;;4.93;3.70;;;7.00;78.20;;;;;;4981490;28;20050;-84
2024/01/09 07:10:57;;;;;;;5.97;3.85;;;6.90;78.80;;;;;;4974561;28;20370;-84
2024/01/09 07:13:23;;;;;;;6.25;3.80;;;6.90;78.70;;;;;;4974925;28;20477;-87
2024/01/09 07:15:49;;;;;;;4.95;3.80;;;6.90;79.20;;;;;;4977239;28;20037;-87
2024/01/09 07:18:15;;;;;;;9.32;4.22;;;6.80;78.90;;;;;;4982669;28;20385;-86
2024/01/09 07:20:42;;;;;;;6.70;4.10;;;6.80;79.20;;;;;;4975407;28;20031;-86
2024/01/09 07:23:07;;;;;;;11.23;4.47;;;6.80;79.50;;;;;;4974884;28;20027;-87
2024/01/09 07:25:33;;;;;;;5.82;4.25;;;6.80;79.90;;;;;;4977041;28;20026;-87
2024/01/09 07:27:59;;;;;;;7.82;4.30;;;6.80;79.90;;;;;;4953908;28;20031;-86
2024/01/09 07:30:25;;;;;;;6.55;4.30;;;6.80;80.00;;;;;;4969521;28;20125;-86
2024/01/09 07:32:51;;;;;;;8.77;4.78;;;6.80;80.00;;;;;;4957839;28;20034;-86
2024/01/09 07:35:16;;;;;;;8.77;4.35;;;6.80;79.90;;;;;;4980120;28;20031;-85
2024/01/09 07:37:42;;;;;;;6.00;3.83;;;6.80;80.10;;;;;;4973279;28;20172;-86
2024/01/09 07:40:09;;;;;;;5.60;3.67;;;6.80;79.70;;;;;;4982474;28;20034;-87
2024/01/09 07:42:35;;;;;;;11.02;4.53;;;6.80;80.00;;;;;;4989643;28;20027;-87
2024/01/09 07:45:01;;;;;;;9.32;6.07;;;6.90;80.00;;;;;;4974470;28;20026;-86
2024/01/09 07:47:26;;;;;;;9.82;5.85;;;6.80;79.60;;;;;;4974409;28;20106;-85
2024/01/09 07:49:52;;;;;;;6.72;4.25;;;6.80;79.60;;;;;;4973672;28;20037;-86
2024/01/09 07:52:19;;;;;;;7.72;4.45;;;6.70;79.90;;;;;;4970938;28;20031;-83
2024/01/09 07:54:44;;;;;;;6.40;4.28;;;6.80;80.30;;;;;;4973814;28;20034;-83
2024/01/09 07:57:10;;;;;;;6.38;4.40;;;6.70;79.80;;;;;;4973842;28;20046;-82
2024/01/09 07:59:45;;;;;;;8.07;5.28;;;6.70;80.00;;;;;;4955964;28;20031;-83
2024/01/09 08:02:11;;;;;;;6.63;4.38;;;6.80;80.20;;;;;;4950530;28;20039;-83
2024/01/09 08:04:39;;;;;;;7.75;4.28;;;6.80;80.00;;;;;;4971386;28;20018;-82
2024/01/09 08:07:05;;;;;;;9.02;5.97;;;6.80;79.70;;;;;;4973822;28;20026;-82
2024/01/09 08:09:30;;;;;;;7.35;4.20;;;6.90;80.00;;;;;;4973341;28;20400;-82
2024/01/09 08:11:56;;;;;;;6.43;4.30;;;6.90;79.80;;;;;;4974636;28;20038;-86
2024/01/09 08:14:22;;;;;;;8.63;4.50;;;6.90;79.90;;;;;;4975221;28;20034;-85
2024/01/09 08:16:48;;;;;;;8.35;4.68;;;6.90;79.80;;;;;;4975145;28;20566;-85
2024/01/09 08:19:13;;;;;;;8.27;4.85;;;7.00;79.90;;;;;;4974694;28;20126;-82
2024/01/09 08:21:40;;;;;;;6.95;4.30;;;7.00;79.30;;;;;;4974412;28;20031;-82
2024/01/09 08:24:06;;;;;;;7.18;3.40;;;7.00;79.40;;;;;;4959004;28;20038;-82
2024/01/09 08:26:31;;;;;;;6.47;3.90;;;7.10;79.70;;;;;;4970355;28;20039;-81
2024/01/09 08:28:57;;;;;;;8.00;4.43;;;7.20;79.70;;;;;;4959773;28;20385;-82
2024/01/09 08:31:23;;;;;;;7.85;3.80;;;7.20;79.50;;;;;;4977349;28;20058;-82
2024/01/09 08:33:48;;;;;;;7.32;4.22;;;7.30;79.50;;;;;;4959569;28;20155;-82
2024/01/09 08:36:14;;;;;;;7.10;4.03;;;7.40;79.10;;;;;;4983340;28;20070;-82
2024/01/09 08:38:40;;;;;;;6.15;4.32;;;7.40;78.90;;;;;;4976117;28;20035;-82
2024/01/09 08:41:06;;;;;;;6.88;4.05;;;7.40;79.10;;;;;;4975760;28;20037;-82
2024/01/09 08:43:32;;;;;;;7.05;4.32;;;7.40;77.60;;;;;;4976216;28;20114;-82
2024/01/09 08:45:57;;;;;;;7.00;3.28;;;7.50;78.40;;;;;;4977481;28;20074;-82
2024/01/09 08:48:23;;;;;;;8.30;4.50;;;7.60;79.00;;;;;;4975963;28;20113;-82
2024/01/09 08:50:49;;;;;;;6.40;4.20;;;7.70;78.20;;;;;;4954428;28;20115;-82
2024/01/09 08:53:15;;;;;;;5.63;3.70;;;7.90;77.10;;;;;;4975516;28;20047;-82
2024/01/09 08:55:41;;;;;;;5.90;4.50;;;8.00;77.90;;;;;;4975435;28;20030;-82
2024/01/09 08:58:07;;;;;;;7.15;3.75;;;8.20;76.00;;;;;;4965594;28;20042;-83
2024/01/09 09:00:32;;;;;;;7.60;4.93;;;8.30;77.00;;;;;;4961070;28;20504;-83
2024/01/09 09:02:59;;;;;;;6.05;3.40;;;8.30;75.40;;;;;;4973961;28;20030;-83
2024/01/09 09:05:25;;;;;;;6.95;3.40;;;8.30;75.40;;;;;;4977150;28;20027;-85
2024/01/09 09:07:50;;;;;;;6.07;3.78;;;8.40;75.90;;;;;;4976379;28;20027;-85
2024/01/09 09:10:17;;;;;;;21.88;6.28;;;8.50;75.50;;;;;;4974425;28;20093;-83
2024/01/09 09:12:43;;;;;;;5.80;3.78;;;8.50;74.20;;;;;;4974846;28;20126;-83
2024/01/09 09:15:09;;;;;;;7.65;3.75;;;8.50;74.50;;;;;;4971578;28;20054;-83
2024/01/09 09:17:34;;;;;;;5.88;3.22;;;8.60;73.30;;;;;;4974669;28;20047;-83
2024/01/09 09:20:00;;;;;;;6.22;3.92;;;8.70;74.30;;;;;;4975494;28;20046;-83
2024/01/09 09:22:26;;;;;;;6.43;3.47;;;8.70;72.40;;;;;;4973891;28;20378;-83
2024/01/09 09:24:52;;;;;;;6.43;3.63;;;8.70;73.00;;;;;;4960796;28;20027;-84
2024/01/09 09:27:19;;;;;;;5.07;3.03;;;8.70;72.60;;;;;;4967246;28;20031;-83
2024/01/09 09:29:44;;;;;;;4.95;3.30;;;8.80;73.00;;;;;;4966588;28;20023;-82
2024/01/09 09:32:10;;;;;;;5.13;3.00;;;8.90;73.50;;;;;;4971231;28;20030;-83
2024/01/09 09:34:40;;;;;;;11.00;5.38;;;8.90;72.80;;;;;;4975870;28;20121;-82
2024/01/09 09:37:05;;;;;;;7.87;3.60;;;8.90;71.60;;;;;;4973091;28;20043;-83
2024/01/09 09:39:31;;;;;;;3.88;2.83;;;8.90;72.60;;;;;;4969369;28;20035;-83
2024/01/09 09:41:59;;;;;;;6.85;5.22;;;8.90;72.30;;;;;;4973218;28;20113;-82
2024/01/09 09:44:26;;;;;;;9.90;5.22;;;9.00;69.80;;;;;;4971908;28;20027;-82
2024/01/09 09:46:53;;;;;;;5.63;3.65;;;8.90;70.40;;;;;;4967912;28;20026;-82
2024/01/09 09:49:24;;;;;;;6.75;3.60;;;8.90;71.60;;;;;;4958441;28;20365;-82
2024/01/09 09:51:51;;;;;;;5.90;3.58;;;9.10;72.20;;;;;;4951094;28;20850;-84
2024/01/09 09:54:18;;;;;;;6.13;4.10;;;9.20;71.50;;;;;;4975244;28;20110;-83
2024/01/09 09:56:45;;;;;;;5.55;3.60;;;9.20;69.80;;;;;;4967379;28;20027;-83
2024/01/09 09:59:11;;;;;;;7.60;3.17;;;9.20;70.20;;;;;;4969447;28;20023;-83
2024/01/09 10:01:38;;;;;;;4.15;3.03;;;9.30;70.30;;;;;;4970769;28;20027;-83
2024/01/09 10:04:21;;;;;;;5.65;4.47;;;9.40;71.30;;;;;;4966684;28;20025;-83
2024/01/09 10:06:49;;;;;;;4.97;3.30;;;9.60;68.90;;;;;;4975695;28;20023;-83
2024/01/09 10:09:15;;;;;;;5.63;3.95;;;9.70;70.10;;;;;;4972474;28;20035;-82
2024/01/09 10:11:41;;;;;;;6.75;3.72;;;9.80;68.80;;;;;;4980639;28;20154;-83
2024/01/09 10:14:10;;;;;;;9.07;5.55;;;9.80;67.40;;;;;;4974816;28;20067;-82
2024/01/09 10:16:55;;;;;;;7.20;3.22;;;9.70;66.70;;;;;;4977885;28;20055;-82
2024/01/09 10:19:22;;;;;;;6.97;4.85;;;9.70;69.20;;;;;;4974113;28;20030;-82
2024/01/09 10:21:48;;;;;;;5.28;3.60;;;9.80;69.20;;;;;;4975412;28;20027;-82
2024/01/09 10:24:15;;;;;;;5.65;3.55;;;9.90;69.40;;;;;;4976230;28;20027;-91
2024/01/09 10:26:41;;;;;;;6.30;3.90;;;10.00;69.30;;;;;;4977193;28;20418;-88
2024/01/09 10:29:09;;;;;;;6.95;4.15;;;10.10;68.70;;;;;;4977289;28;20093;-83
2024/01/09 10:31:35;;;;;;;6.15;4.10;;;10.00;67.50;;;;;;4975653;28;20035;-91
2024/01/09 10:34:00;;;;;;;5.80;3.78;;;10.10;68.80;;;;;;4988893;28;20046;-92
2024/01/09 10:36:27;;;;;;;5.43;4.18;;;10.20;69.10;;;;;;4985800;28;20026;-91
2024/01/09 10:39:04;;;;;;;6.00;3.63;;;10.40;69.80;;;;;;4995401;28;20046;-91
2024/01/09 10:41:31;;;;;;;11.45;6.65;;;10.60;68.70;;;;;;4974250;28;20019;-90
2024/01/09 10:43:57;;;;;;;7.30;5.05;;;10.70;66.50;;;;;;4959757;28;20035;-89
2024/01/09 10:46:24;;;;;;;5.00;3.30;;;10.80;68.30;;;;;;4976679;28;20062;-89
2024/01/09 10:48:51;;;;;;;5.15;3.88;;;11.00;68.20;;;;;;4978920;28;20472;-88
2024/01/09 10:51:18;;;;;;;9.93;5.97;;;11.20;68.70;;;;;;4990310;28;20027;-88
2024/01/09 10:53:47;;;;;;;7.05;4.90;;;11.40;66.70;;;;;;4978704;28;20035;-89
2024/01/09 10:56:18;;;;;;;6.18;4.82;;;11.30;66.60;;;;;;4977281;28;20030;-88
2024/01/09 10:58:48;;;;;;;7.35;4.35;;;11.40;66.40;;;;;;4983172;28;20038;-83
2024/01/09 11:01:14;;;;;;;9.38;6.53;;;11.50;67.50;;;;;;4993098;28;20027;-84
2024/01/09 11:03:43;;;;;;;8.27;4.47;;;11.50;64.30;;;;;;4970830;28;20382;-84
2024/01/09 11:06:09;;;;;;;6.57;4.37;;;11.60;66.90;;;;;;4970179;28;20077;-84
2024/01/09 11:08:36;;;;;;;5.13;3.60;;;11.70;67.50;;;;;;4988581;28;20058;-84
2024/01/09 11:11:13;;;;;;;6.95;4.35;;;11.90;67.80;;;;;;4994216;28;20030;-84
2024/01/09 11:13:42;;;;;;;5.43;2.92;;;12.10;67.00;;;;;;4992355;28;20478;-84
2024/01/09 11:16:11;;;;;;;5.82;3.75;;;12.50;75.50;;;;;;4983762;28;20026;-85
2024/01/09 11:18:38;;;;;;;6.38;4.07;;;12.60;68.50;;;;;;4965264;28;20031;-85
2024/01/09 11:21:04;;;;;;;5.32;4.07;;;12.80;67.70;;;;;;4975156;28;20035;-86
2024/01/09 11:23:42;;;;;;;8.55;5.22;;;12.80;65.90;;;;;;4981407;28;20026;-86
2024/01/09 11:26:08;;;;;;;9.25;4.38;;;12.90;64.60;;;;;;4975110;28;20078;-85
2024/01/09 11:28:38;;;;;;;7.95;4.75;;;12.70;64.40;;;;;;4975242;28;20031;-86
2024/01/09 11:31:35;;;;;;;7.68;4.65;;;12.70;65.00;;;;;;5038404;23;20085;-87
2024/01/09 11:34:02;;;;;;;8.32;4.47;;;12.90;64.30;;;;;;4918585;29;20596;-88
2024/01/09 11:36:33;;;;;;;6.68;4.22;;;13.00;64.20;;;;;;4922115;29;20123;-88
2024/01/09 11:38:59;;;;;;;5.88;3.83;;;13.20;64.90;;;;;;4925984;29;20064;-88
2024/01/09 11:41:33;;;;;;;5.93;4.13;;;13.40;64.80;;;;;;4918355;29;20071;-88
2024/01/09 11:44:11;;;;;;;5.45;3.90;;;13.50;63.60;;;;;;4918951;29;20039;-88
2024/01/09 11:46:38;;;;;;;7.15;4.43;;;13.60;64.40;;;;;;4917243;29;20390;-89
2024/01/09 11:49:06;;;;;;;11.82;5.95;;;13.80;64.10;;;;;;4918344;29;20390;-88
2024/01/09 11:51:33;;;;;;;7.47;4.50;;;14.30;60.50;;;;;;4919677;29;20032;-89
2024/01/09 11:54:00;;;;;;;7.22;4.15;;;15.00;59.60;;;;;;4920333;29;20032;-89
2024/01/09 11:56:29;;;;;;;7.78;3.63;;;16.10;61.40;;;;;;4931183;29;20142;-89
2024/01/09 11:58:56;;;;;;;7.23;3.50;;;17.00;57.10;;;;;;4917980;29;20044;-89
2024/01/09 12:01:22;;;;;;;7.35;4.72;;;17.90;55.90;;;;;;4918337;29;20470;-88
2024/01/09 12:03:53;;;;;;;9.88;4.75;;;18.70;54.80;;;;;;4931196;29;20028;-89
2024/01/09 12:06:19;;;;;;;7.82;4.93;;;19.50;53.60;;;;;;4923224;29;20477;-89
2024/01/09 12:08:45;;;;;;;6.00;4.05;;;20.30;51.50;;;;;;4922881;29;20028;-85
2024/01/09 12:11:12;;;;;;;6.75;4.65;;;20.80;48.70;;;;;;4911469;29;20046;-85
2024/01/09 12:13:37;;;;;;;6.88;4.65;;;21.30;49.20;;;;;;4917996;29;20071;-86
2024/01/09 12:16:21;;;;;;;8.20;4.25;;;21.80;47.90;;;;;;4900860;29;20100;-86
2024/01/09 12:18:48;;;;;;;7.15;4.68;;;22.00;44.60;;;;;;4916014;29;20027;-86
2024/01/09 12:21:14;;;;;;;4.65;3.75;;;22.00;45.20;;;;;;4916348;29;20036;-86
2024/01/09 12:23:40;;;;;;;7.78;4.03;;;22.00;44.30;;;;;;4917696;29;20363;-88
2024/01/09 12:26:06;;;;;;;5.38;4.07;;;22.00;43.50;;;;;;4917225;29;20096;-87
2024/01/09 12:28:33;;;;;;;6.32;3.45;;;22.00;43.50;;;;;;4897477;29;20029;-88
2024/01/09 12:31:02;;;;;;;4.53;3.28;;;22.00;42.30;;;;;;4898656;29;20169;-88
2024/01/09 12:33:29;;;;;;;5.50;3.85;;;22.20;42.50;;;;;;4908737;29;20144;-88
2024/01/09 12:35:57;;;;;;;5.90;3.75;;;22.30;42.00;;;;;;4925727;29;20198;-89
2024/01/09 12:38:23;;;;;;;8.18;4.15;;;22.40;42.20;;;;;;4914468;29;20020;-88
2024/01/09 12:41:04;;;;;;;4.57;3.45;;;22.30;41.20;;;;;;4917373;29;20028;-88
2024/01/09 12:43:30;;;;;;;4.68;3.47;;;21.60;40.50;;;;;;4918299;29;20028;-87
2024/01/09 12:45:56;;;;;;;8.77;3.80;;;21.00;41.10;;;;;;4924589;29;20036;-88
2024/01/09 12:48:23;;;;;;;8.18;3.30;;;20.70;41.70;;;;;;4933153;29;20362;-88
2024/01/09 12:51:02;;;;;;;5.30;3.05;;;20.40;42.10;;;;;;4917126;29;20090;-89
2024/01/09 12:53:33;;;;;;;8.13;3.33;;;19.90;41.80;;;;;;4936856;29;20087;-88